sensor_id;sensor_type;location;lat;lon;timestamp;P1;durP1;ratioP1;P2;durP2;ratioP2
57113;SDS011;42994;51.606;9.988;2022-08-03T01:27:10;5.43;;;4.35;;
57113;SDS011;42994;51.606;9.988;2022-08-03T01:29:57;4.82;;;4.35;;
57113;SDS011;42994;51.606;9.988;2022-08-03T01:32:30;4.85;;;4.30;;
57113;SDS011;42994;51.606;9.988;2022-08-03T01:35:03;4.45;;;4.15;;
57113;SDS011;42994;51.606;9.988;2022-08-03T01:37:34;5.63;;;4.28;;
57113;SDS011;42994;51.606;9.988;2022-08-03T01:40:05;5.18;;;4.10;;
57113;SDS011;42994;51.606;9.988;2022-08-03T01:42:33;4.82;;;4.43;;
57113;SDS011;42994;51.606;9.988;2022-08-03T01:45:03;4.63;;;4.22;;
57113;SDS011;42994;51.606;9.988;2022-08-03T01:47:32;4.93;;;4.43;;
57113;SDS011;42994;51.606;9.988;2022-08-03T01:49:59;7.45;;;4.55;;
57113;SDS011;42994;51.606;9.988;2022-08-03T01:52:28;4.40;;;4.10;;
57113;SDS011;42994;51.606;9.988;2022-08-03T01:54:57;5.82;;;4.45;;
57113;SDS011;42994;51.606;9.988;2022-08-03T01:57:26;4.75;;;4.35;;
57113;SDS011;42994;51.606;9.988;2022-08-03T01:59:54;5.60;;;4.57;;
57113;SDS011;42994;51.606;9.988;2022-08-03T02:02:23;5.25;;;4.85;;
57113;SDS011;42994;51.606;9.988;2022-08-03T02:04:51;6.35;;;5.28;;
57113;SDS011;42994;51.606;9.988;2022-08-03T02:07:20;5.32;;;4.82;;
57113;SDS011;42994;51.606;9.988;2022-08-03T02:09:50;6.25;;;4.85;;
57113;SDS011;42994;51.606;9.988;2022-08-03T02:12:18;5.50;;;4.50;;
57113;SDS011;42994;51.606;9.988;2022-08-03T02:14:46;8.25;;;4.82;;
57113;SDS011;42994;51.606;9.988;2022-08-03T02:17:15;3.95;;;3.65;;
57113;SDS011;42994;51.606;9.988;2022-08-03T02:19:43;5.50;;;4.95;;
57113;SDS011;42994;51.606;9.988;2022-08-03T02:22:12;5.30;;;4.90;;
57113;SDS011;42994;51.606;9.988;2022-08-03T02:24:40;5.43;;;4.78;;
57113;SDS011;42994;51.606;9.988;2022-08-03T02:27:09;5.32;;;4.82;;
57113;SDS011;42994;51.606;9.988;2022-08-03T02:29:41;5.93;;;5.30;;
57113;SDS011;42994;51.606;9.988;2022-08-03T02:32:11;5.18;;;4.72;;
57113;SDS011;42994;51.606;9.988;2022-08-03T02:34:44;9.43;;;5.88;;
57113;SDS011;42994;51.606;9.988;2022-08-03T02:37:14;6.25;;;5.65;;
57113;SDS011;42994;51.606;9.988;2022-08-03T02:39:44;6.60;;;5.72;;
57113;SDS011;42994;51.606;9.988;2022-08-03T02:42:13;6.75;;;6.13;;
57113;SDS011;42994;51.606;9.988;2022-08-03T02:44:41;6.22;;;5.68;;
57113;SDS011;42994;51.606;9.988;2022-08-03T02:49:41;6.80;;;5.03;;
57113;SDS011;42994;51.606;9.988;2022-08-03T02:52:12;11.45;;;6.18;;
57113;SDS011;42994;51.606;9.988;2022-08-03T02:54:41;10.63;;;6.25;;
57113;SDS011;42994;51.606;9.988;2022-08-03T02:57:09;6.88;;;6.22;;
57113;SDS011;42994;51.606;9.988;2022-08-03T02:59:37;5.93;;;5.43;;
57113;SDS011;42994;51.606;9.988;2022-08-03T03:02:05;6.53;;;5.53;;
57113;SDS011;42994;51.606;9.988;2022-08-03T03:04:32;6.13;;;5.50;;
57113;SDS011;42994;51.606;9.988;2022-08-03T03:07:01;5.70;;;5.25;;
57113;SDS011;42994;51.606;9.988;2022-08-03T03:09:28;6.68;;;6.18;;
57113;SDS011;42994;51.606;9.988;2022-08-03T03:11:56;6.75;;;6.00;;
57113;SDS011;42994;51.606;9.988;2022-08-03T03:14:23;5.82;;;5.20;;
57113;SDS011;42994;51.606;9.988;2022-08-03T03:16:51;6.78;;;6.00;;
57113;SDS011;42994;51.606;9.988;2022-08-03T03:19:19;5.93;;;5.50;;
57113;SDS011;42994;51.606;9.988;2022-08-03T03:21:47;6.63;;;6.03;;
57113;SDS011;42994;51.606;9.988;2022-08-03T03:24:16;7.32;;;6.30;;
57113;SDS011;42994;51.606;9.988;2022-08-03T03:26:43;7.35;;;5.75;;
57113;SDS011;42994;51.606;9.988;2022-08-03T03:29:10;7.70;;;6.20;;
57113;SDS011;42994;51.606;9.988;2022-08-03T03:31:37;7.05;;;5.63;;
57113;SDS011;42994;51.606;9.988;2022-08-03T03:34:05;8.15;;;6.88;;
57113;SDS011;42994;51.606;9.988;2022-08-03T03:36:32;6.60;;;6.00;;
57113;SDS011;42994;51.606;9.988;2022-08-03T03:38:58;7.40;;;6.53;;
57113;SDS011;42994;51.606;9.988;2022-08-03T03:41:26;7.20;;;6.50;;
57113;SDS011;42994;51.606;9.988;2022-08-03T03:43:53;8.02;;;6.65;;
57113;SDS011;42994;51.606;9.988;2022-08-03T03:46:20;6.55;;;5.95;;
57113;SDS011;42994;51.606;9.988;2022-08-03T03:48:47;8.07;;;6.10;;
57113;SDS011;42994;51.606;9.988;2022-08-03T03:51:14;6.95;;;6.28;;
57113;SDS011;42994;51.606;9.988;2022-08-03T03:53:52;9.48;;;6.10;;
57113;SDS011;42994;51.606;9.988;2022-08-03T03:56:20;7.20;;;6.50;;
57113;SDS011;42994;51.606;9.988;2022-08-03T03:58:48;13.23;;;7.03;;
57113;SDS011;42994;51.606;9.988;2022-08-03T04:01:15;7.43;;;6.72;;
57113;SDS011;42994;51.606;9.988;2022-08-03T04:03:42;7.75;;;5.95;;
57113;SDS011;42994;51.606;9.988;2022-08-03T04:06:09;6.40;;;5.78;;
57113;SDS011;42994;51.606;9.988;2022-08-03T04:08:53;10.77;;;7.03;;
57113;SDS011;42994;51.606;9.988;2022-08-03T04:11:39;7.15;;;6.55;;
57113;SDS011;42994;51.606;9.988;2022-08-03T04:14:10;7.65;;;6.95;;
57113;SDS011;42994;51.606;9.988;2022-08-03T04:16:40;6.20;;;5.60;;
57113;SDS011;42994;51.606;9.988;2022-08-03T04:19:11;7.38;;;6.68;;
57113;SDS011;42994;51.606;9.988;2022-08-03T04:21:42;7.55;;;6.85;;
57113;SDS011;42994;51.606;9.988;2022-08-03T04:24:12;6.95;;;6.32;;
57113;SDS011;42994;51.606;9.988;2022-08-03T04:26:40;7.35;;;5.82;;
57113;SDS011;42994;51.606;9.988;2022-08-03T04:29:11;7.70;;;6.18;;
57113;SDS011;42994;51.606;9.988;2022-08-03T04:31:41;7.95;;;6.18;;
57113;SDS011;42994;51.606;9.988;2022-08-03T04:34:08;6.45;;;5.90;;
57113;SDS011;42994;51.606;9.988;2022-08-03T04:36:36;7.72;;;5.97;;
57113;SDS011;42994;51.606;9.988;2022-08-03T04:39:11;11.20;;;7.22;;
57113;SDS011;42994;51.606;9.988;2022-08-03T04:41:41;6.22;;;5.70;;
57113;SDS011;42994;51.606;9.988;2022-08-03T04:44:11;6.70;;;6.10;;
57113;SDS011;42994;51.606;9.988;2022-08-03T04:46:39;8.10;;;6.20;;
57113;SDS011;42994;51.606;9.988;2022-08-03T04:49:08;7.57;;;6.40;;
57113;SDS011;42994;51.606;9.988;2022-08-03T04:51:36;6.07;;;5.53;;
57113;SDS011;42994;51.606;9.988;2022-08-03T04:54:04;7.30;;;5.63;;
57113;SDS011;42994;51.606;9.988;2022-08-03T04:56:32;7.07;;;5.90;;
57113;SDS011;42994;51.606;9.988;2022-08-03T04:58:59;7.47;;;5.32;;
57113;SDS011;42994;51.606;9.988;2022-08-03T05:01:27;7.40;;;5.65;;
57113;SDS011;42994;51.606;9.988;2022-08-03T05:03:54;8.13;;;5.57;;
57113;SDS011;42994;51.606;9.988;2022-08-03T05:06:21;7.43;;;6.60;;
57113;SDS011;42994;51.606;9.988;2022-08-03T05:08:47;7.37;;;6.67;;
57113;SDS011;42994;51.606;9.988;2022-08-03T05:11:14;10.25;;;6.80;;
57113;SDS011;42994;51.606;9.988;2022-08-03T05:13:41;10.18;;;7.93;;
57113;SDS011;42994;51.606;9.988;2022-08-03T05:16:08;9.48;;;8.13;;
57113;SDS011;42994;51.606;9.988;2022-08-03T05:18:37;8.90;;;7.80;;
57113;SDS011;42994;51.606;9.988;2022-08-03T05:21:04;16.20;;;9.07;;
57113;SDS011;42994;51.606;9.988;2022-08-03T05:23:30;13.73;;;9.52;;
57113;SDS011;42994;51.606;9.988;2022-08-03T05:25:57;11.55;;;9.32;;
57113;SDS011;42994;51.606;9.988;2022-08-03T05:28:24;14.35;;;10.80;;
57113;SDS011;42994;51.606;9.988;2022-08-03T05:30:50;17.93;;;12.60;;
57113;SDS011;42994;51.606;9.988;2022-08-03T05:33:17;12.65;;;11.07;;
57113;SDS011;42994;51.606;9.988;2022-08-03T05:35:45;16.75;;;11.40;;
57113;SDS011;42994;51.606;9.988;2022-08-03T05:38:12;15.07;;;11.50;;
57113;SDS011;42994;51.606;9.988;2022-08-03T05:40:39;13.68;;;11.65;;
57113;SDS011;42994;51.606;9.988;2022-08-03T05:43:06;18.50;;;11.83;;
57113;SDS011;42994;51.606;9.988;2022-08-03T05:45:33;16.38;;;11.93;;
57113;SDS011;42994;51.606;9.988;2022-08-03T05:48:02;16.27;;;12.38;;
57113;SDS011;42994;51.606;9.988;2022-08-03T05:50:29;15.80;;;11.52;;
57113;SDS011;42994;51.606;9.988;2022-08-03T05:52:57;14.10;;;11.93;;
57113;SDS011;42994;51.606;9.988;2022-08-03T05:55:24;16.50;;;10.50;;
57113;SDS011;42994;51.606;9.988;2022-08-03T05:57:51;13.00;;;9.60;;
57113;SDS011;42994;51.606;9.988;2022-08-03T06:00:17;12.15;;;10.48;;
57113;SDS011;42994;51.606;9.988;2022-08-03T06:02:44;12.90;;;10.18;;
57113;SDS011;42994;51.606;9.988;2022-08-03T06:05:11;13.30;;;9.45;;
57113;SDS011;42994;51.606;9.988;2022-08-03T06:07:38;9.48;;;7.50;;
57113;SDS011;42994;51.606;9.988;2022-08-03T06:10:07;8.65;;;6.72;;
57113;SDS011;42994;51.606;9.988;2022-08-03T06:12:34;9.82;;;7.85;;
57113;SDS011;42994;51.606;9.988;2022-08-03T06:15:01;9.90;;;7.30;;
57113;SDS011;42994;51.606;9.988;2022-08-03T06:17:28;8.25;;;4.97;;
57113;SDS011;42994;51.606;9.988;2022-08-03T06:19:55;8.45;;;5.68;;
57113;SDS011;42994;51.606;9.988;2022-08-03T06:22:22;8.10;;;5.32;;
57113;SDS011;42994;51.606;9.988;2022-08-03T06:24:49;10.43;;;5.97;;
57113;SDS011;42994;51.606;9.988;2022-08-03T06:27:17;9.60;;;5.53;;
57113;SDS011;42994;51.606;9.988;2022-08-03T06:29:44;4.97;;;4.30;;
57113;SDS011;42994;51.606;9.988;2022-08-03T06:32:11;7.57;;;4.10;;
57113;SDS011;42994;51.606;9.988;2022-08-03T06:34:37;7.00;;;3.70;;
57113;SDS011;42994;51.606;9.988;2022-08-03T06:37:04;6.70;;;4.15;;
57113;SDS011;42994;51.606;9.988;2022-08-03T06:39:31;5.55;;;4.10;;
57113;SDS011;42994;51.606;9.988;2022-08-03T06:41:57;5.93;;;4.40;;
57113;SDS011;42994;51.606;9.988;2022-08-03T06:44:26;6.55;;;4.55;;
57113;SDS011;42994;51.606;9.988;2022-08-03T06:46:52;4.10;;;3.72;;
57113;SDS011;42994;51.606;9.988;2022-08-03T06:49:19;6.30;;;4.43;;
57113;SDS011;42994;51.606;9.988;2022-08-03T06:51:46;4.53;;;4.13;;
57113;SDS011;42994;51.606;9.988;2022-08-03T06:54:15;7.85;;;4.43;;
57113;SDS011;42994;51.606;9.988;2022-08-03T06:56:41;5.00;;;3.78;;
57113;SDS011;42994;51.606;9.988;2022-08-03T06:59:08;5.97;;;2.97;;
57113;SDS011;42994;51.606;9.988;2022-08-03T07:01:36;2.85;;;2.63;;
57113;SDS011;42994;51.606;9.988;2022-08-03T07:04:03;5.53;;;2.88;;
57113;SDS011;42994;51.606;9.988;2022-08-03T07:06:30;4.07;;;2.20;;
57113;SDS011;42994;51.606;9.988;2022-08-03T07:08:56;5.30;;;3.27;;
57113;SDS011;42994;51.606;9.988;2022-08-03T07:11:23;3.00;;;2.30;;
57113;SDS011;42994;51.606;9.988;2022-08-03T07:13:50;2.88;;;2.38;;
57113;SDS011;42994;51.606;9.988;2022-08-03T07:16:17;3.67;;;2.43;;
57113;SDS011;42994;51.606;9.988;2022-08-03T07:18:45;4.13;;;2.42;;
57113;SDS011;42994;51.606;9.988;2022-08-03T07:21:12;3.92;;;2.42;;
57113;SDS011;42994;51.606;9.988;2022-08-03T07:23:40;4.90;;;2.53;;
57113;SDS011;42994;51.606;9.988;2022-08-03T07:26:07;5.63;;;2.97;;
57113;SDS011;42994;51.606;9.988;2022-08-03T07:28:34;5.78;;;3.15;;
57113;SDS011;42994;51.606;9.988;2022-08-03T07:31:00;3.63;;;2.70;;
57113;SDS011;42994;51.606;9.988;2022-08-03T07:33:27;3.55;;;2.45;;
57113;SDS011;42994;51.606;9.988;2022-08-03T07:35:55;3.43;;;2.17;;
57113;SDS011;42994;51.606;9.988;2022-08-03T07:38:22;3.03;;;2.73;;
57113;SDS011;42994;51.606;9.988;2022-08-03T07:40:48;3.30;;;2.10;;
57113;SDS011;42994;51.606;9.988;2022-08-03T07:43:15;3.03;;;1.50;;
57113;SDS011;42994;51.606;9.988;2022-08-03T07:45:42;3.42;;;2.10;;
57113;SDS011;42994;51.606;9.988;2022-08-03T07:48:09;4.53;;;2.00;;
57113;SDS011;42994;51.606;9.988;2022-08-03T07:50:36;4.18;;;2.20;;
57113;SDS011;42994;51.606;9.988;2022-08-03T07:53:04;3.45;;;2.03;;
57113;SDS011;42994;51.606;9.988;2022-08-03T07:55:30;2.05;;;1.83;;
57113;SDS011;42994;51.606;9.988;2022-08-03T07:57:58;7.82;;;2.20;;
57113;SDS011;42994;51.606;9.988;2022-08-03T08:00:26;4.90;;;1.90;;
57113;SDS011;42994;51.606;9.988;2022-08-03T08:02:52;2.50;;;1.40;;
57113;SDS011;42994;51.606;9.988;2022-08-03T08:05:19;3.05;;;1.50;;
57113;SDS011;42994;51.606;9.988;2022-08-03T08:07:46;3.10;;;1.70;;
57113;SDS011;42994;51.606;9.988;2022-08-03T08:10:14;3.50;;;1.48;;
57113;SDS011;42994;51.606;9.988;2022-08-03T08:12:41;4.88;;;1.48;;
57113;SDS011;42994;51.606;9.988;2022-08-03T08:15:07;2.30;;;1.30;;
57113;SDS011;42994;51.606;9.988;2022-08-03T08:17:41;3.38;;;1.30;;
57113;SDS011;42994;51.606;9.988;2022-08-03T08:20:10;2.50;;;1.30;;
57113;SDS011;42994;51.606;9.988;2022-08-03T08:22:37;3.43;;;1.60;;
57113;SDS011;42994;51.606;9.988;2022-08-03T08:25:05;2.23;;;1.40;;
57113;SDS011;42994;51.606;9.988;2022-08-03T08:27:33;3.10;;;1.40;;
57113;SDS011;42994;51.606;9.988;2022-08-03T08:30:07;1.90;;;1.35;;
57113;SDS011;42994;51.606;9.988;2022-08-03T08:32:34;1.43;;;1.30;;
57113;SDS011;42994;51.606;9.988;2022-08-03T08:35:01;4.60;;;1.60;;
57113;SDS011;42994;51.606;9.988;2022-08-03T08:37:28;2.45;;;1.70;;
57113;SDS011;42994;51.606;9.988;2022-08-03T08:39:55;1.92;;;1.45;;
57113;SDS011;42994;51.606;9.988;2022-08-03T08:42:21;1.83;;;1.60;;
57113;SDS011;42994;51.606;9.988;2022-08-03T08:44:49;1.80;;;1.70;;
57113;SDS011;42994;51.606;9.988;2022-08-03T08:47:16;3.20;;;1.65;;
57113;SDS011;42994;51.606;9.988;2022-08-03T08:49:45;6.63;;;1.67;;
57113;SDS011;42994;51.606;9.988;2022-08-03T08:52:13;1.85;;;1.38;;
57113;SDS011;42994;51.606;9.988;2022-08-03T08:54:40;2.22;;;1.38;;
57113;SDS011;42994;51.606;9.988;2022-08-03T08:57:08;1.77;;;1.48;;
57113;SDS011;42994;51.606;9.988;2022-08-03T08:59:37;1.88;;;1.30;;
57113;SDS011;42994;51.606;9.988;2022-08-03T09:02:05;5.63;;;1.98;;
57113;SDS011;42994;51.606;9.988;2022-08-03T09:04:32;2.50;;;1.63;;
57113;SDS011;42994;51.606;9.988;2022-08-03T09:07:00;1.77;;;1.55;;
57113;SDS011;42994;51.606;9.988;2022-08-03T09:09:27;3.70;;;1.48;;
57113;SDS011;42994;51.606;9.988;2022-08-03T09:11:54;5.32;;;1.65;;
57113;SDS011;42994;51.606;9.988;2022-08-03T09:14:21;1.75;;;1.52;;
57113;SDS011;42994;51.606;9.988;2022-08-03T09:16:54;4.70;;;2.17;;
57113;SDS011;42994;51.606;9.988;2022-08-03T09:19:25;1.42;;;1.33;;
57113;SDS011;42994;51.606;9.988;2022-08-03T09:22:06;1.40;;;1.30;;
57113;SDS011;42994;51.606;9.988;2022-08-03T09:24:35;3.00;;;1.73;;
57113;SDS011;42994;51.606;9.988;2022-08-03T09:27:03;3.65;;;1.52;;
57113;SDS011;42994;51.606;9.988;2022-08-03T09:29:35;2.05;;;1.17;;
57113;SDS011;42994;51.606;9.988;2022-08-03T09:32:03;1.20;;;1.10;;
57113;SDS011;42994;51.606;9.988;2022-08-03T09:34:32;7.07;;;1.27;;
57113;SDS011;42994;51.606;9.988;2022-08-03T09:36:58;5.85;;;1.27;;
57113;SDS011;42994;51.606;9.988;2022-08-03T09:39:25;1.30;;;1.20;;
57113;SDS011;42994;51.606;9.988;2022-08-03T09:42:06;2.90;;;1.20;;
57113;SDS011;42994;51.606;9.988;2022-08-03T09:44:33;5.25;;;1.40;;
57113;SDS011;42994;51.606;9.988;2022-08-03T09:47:01;4.72;;;1.30;;
57113;SDS011;42994;51.606;9.988;2022-08-03T09:49:28;2.03;;;1.70;;
57113;SDS011;42994;51.606;9.988;2022-08-03T09:51:56;1.42;;;1.30;;
57113;SDS011;42994;51.606;9.988;2022-08-03T09:54:28;1.83;;;1.40;;
57113;SDS011;42994;51.606;9.988;2022-08-03T09:56:56;3.28;;;1.35;;
57113;SDS011;42994;51.606;9.988;2022-08-03T09:59:24;1.88;;;1.40;;
57113;SDS011;42994;51.606;9.988;2022-08-03T10:01:52;2.17;;;1.10;;
57113;SDS011;42994;51.606;9.988;2022-08-03T10:04:20;2.35;;;1.30;;
57113;SDS011;42994;51.606;9.988;2022-08-03T10:07:05;1.70;;;1.60;;
57113;SDS011;42994;51.606;9.988;2022-08-03T10:09:33;2.97;;;1.30;;
57113;SDS011;42994;51.606;9.988;2022-08-03T10:12:07;2.38;;;1.35;;
57113;SDS011;42994;51.606;9.988;2022-08-03T10:14:35;3.47;;;1.50;;
57113;SDS011;42994;51.606;9.988;2022-08-03T10:17:03;4.55;;;1.48;;
57113;SDS011;42994;51.606;9.988;2022-08-03T10:19:29;2.55;;;1.35;;
57113;SDS011;42994;51.606;9.988;2022-08-03T10:21:57;2.42;;;1.23;;
57113;SDS011;42994;51.606;9.988;2022-08-03T10:24:29;1.45;;;1.35;;
57113;SDS011;42994;51.606;9.988;2022-08-03T10:27:01;3.72;;;1.33;;
57113;SDS011;42994;51.606;9.988;2022-08-03T10:29:33;1.70;;;1.60;;
57113;SDS011;42994;51.606;9.988;2022-08-03T10:32:03;1.50;;;1.40;;
57113;SDS011;42994;51.606;9.988;2022-08-03T10:34:34;1.33;;;1.23;;
57113;SDS011;42994;51.606;9.988;2022-08-03T10:37:07;1.77;;;1.58;;
57113;SDS011;42994;51.606;9.988;2022-08-03T10:42:18;1.73;;;1.63;;
57113;SDS011;42994;51.606;9.988;2022-08-03T10:47:18;2.70;;;1.75;;
57113;SDS011;42994;51.606;9.988;2022-08-03T10:49:46;4.47;;;1.52;;
57113;SDS011;42994;51.606;9.988;2022-08-03T10:52:14;6.47;;;1.48;;
57113;SDS011;42994;51.606;9.988;2022-08-03T10:54:43;8.13;;;1.40;;
57113;SDS011;42994;51.606;9.988;2022-08-03T10:57:41;7.93;;;1.77;;
57113;SDS011;42994;51.606;9.988;2022-08-03T11:05:31;1.83;;;1.40;;
57113;SDS011;42994;51.606;9.988;2022-08-03T11:10:51;1.60;;;1.50;;
57113;SDS011;42994;51.606;9.988;2022-08-03T11:13:19;7.55;;;1.77;;
57113;SDS011;42994;51.606;9.988;2022-08-03T11:15:48;1.48;;;1.38;;
57113;SDS011;42994;51.606;9.988;2022-08-03T11:18:16;3.28;;;1.60;;
57113;SDS011;42994;51.606;9.988;2022-08-03T11:20:47;4.70;;;1.40;;
57113;SDS011;42994;51.606;9.988;2022-08-03T11:23:16;5.90;;;2.00;;
57113;SDS011;42994;51.606;9.988;2022-08-03T11:28:41;3.80;;;1.40;;
57113;SDS011;42994;51.606;9.988;2022-08-03T11:34:12;2.83;;;1.38;;
57113;SDS011;42994;51.606;9.988;2022-08-03T11:39:46;1.27;;;1.17;;
57113;SDS011;42994;51.606;9.988;2022-08-03T11:45:09;2.08;;;1.50;;
57113;SDS011;42994;51.606;9.988;2022-08-03T11:47:37;1.25;;;1.15;;
57113;SDS011;42994;51.606;9.988;2022-08-03T11:50:05;2.30;;;1.25;;
57113;SDS011;42994;51.606;9.988;2022-08-03T11:52:33;1.65;;;1.45;;
57113;SDS011;42994;51.606;9.988;2022-08-03T11:55:02;1.58;;;1.33;;
57113;SDS011;42994;51.606;9.988;2022-08-03T11:57:35;3.80;;;1.30;;
57113;SDS011;42994;51.606;9.988;2022-08-03T12:00:03;4.95;;;1.60;;
57113;SDS011;42994;51.606;9.988;2022-08-03T12:02:52;1.50;;;1.40;;
57113;SDS011;42994;51.606;9.988;2022-08-03T12:05:20;3.00;;;1.48;;
57113;SDS011;42994;51.606;9.988;2022-08-03T12:12:53;1.77;;;1.40;;
57113;SDS011;42994;51.606;9.988;2022-08-03T12:15:24;1.58;;;1.40;;
57113;SDS011;42994;51.606;9.988;2022-08-03T12:17:52;3.20;;;1.30;;
57113;SDS011;42994;51.606;9.988;2022-08-03T12:20:20;1.23;;;1.13;;
57113;SDS011;42994;51.606;9.988;2022-08-03T12:22:48;0.98;;;0.98;;
57113;SDS011;42994;51.606;9.988;2022-08-03T12:25:19;2.03;;;1.30;;
57113;SDS011;42994;51.606;9.988;2022-08-03T12:27:46;1.20;;;1.10;;
57113;SDS011;42994;51.606;9.988;2022-08-03T12:30:13;2.30;;;1.00;;
57113;SDS011;42994;51.606;9.988;2022-08-03T12:32:42;1.95;;;1.10;;
57113;SDS011;42994;51.606;9.988;2022-08-03T12:35:09;1.58;;;1.48;;
57113;SDS011;42994;51.606;9.988;2022-08-03T12:37:47;1.83;;;1.35;;
57113;SDS011;42994;51.606;9.988;2022-08-03T12:40:14;2.28;;;1.60;;
57113;SDS011;42994;51.606;9.988;2022-08-03T12:42:49;4.20;;;1.50;;
57113;SDS011;42994;51.606;9.988;2022-08-03T12:45:20;1.35;;;1.20;;
57113;SDS011;42994;51.606;9.988;2022-08-03T12:47:49;3.67;;;1.85;;
57113;SDS011;42994;51.606;9.988;2022-08-03T12:50:22;2.58;;;1.27;;
57113;SDS011;42994;51.606;9.988;2022-08-03T12:52:50;1.38;;;1.27;;
57113;SDS011;42994;51.606;9.988;2022-08-03T12:55:18;8.80;;;1.23;;
57113;SDS011;42994;51.606;9.988;2022-08-03T12:57:46;2.58;;;1.38;;
57113;SDS011;42994;51.606;9.988;2022-08-03T13:00:13;1.55;;;1.23;;
57113;SDS011;42994;51.606;9.988;2022-08-03T13:02:41;4.47;;;1.60;;
57113;SDS011;42994;51.606;9.988;2022-08-03T13:05:10;3.33;;;1.25;;
57113;SDS011;42994;51.606;9.988;2022-08-03T13:07:41;1.40;;;1.30;;
57113;SDS011;42994;51.606;9.988;2022-08-03T13:12:44;2.97;;;1.58;;
57113;SDS011;42994;51.606;9.988;2022-08-03T13:15:12;5.53;;;1.48;;
57113;SDS011;42994;51.606;9.988;2022-08-03T13:17:39;2.25;;;1.27;;
57113;SDS011;42994;51.606;9.988;2022-08-03T13:20:06;3.75;;;1.17;;
57113;SDS011;42994;51.606;9.988;2022-08-03T13:22:35;2.03;;;1.30;;
57113;SDS011;42994;51.606;9.988;2022-08-03T13:25:02;2.78;;;1.50;;
57113;SDS011;42994;51.606;9.988;2022-08-03T13:27:30;2.38;;;1.33;;
57113;SDS011;42994;51.606;9.988;2022-08-03T13:29:57;3.22;;;1.83;;
57113;SDS011;42994;51.606;9.988;2022-08-03T13:32:24;5.47;;;1.25;;
57113;SDS011;42994;51.606;9.988;2022-08-03T13:34:50;6.13;;;1.30;;
57113;SDS011;42994;51.606;9.988;2022-08-03T13:37:17;8.52;;;1.60;;
57113;SDS011;42994;51.606;9.988;2022-08-03T13:39:45;4.35;;;1.30;;
57113;SDS011;42994;51.606;9.988;2022-08-03T13:42:12;3.50;;;1.40;;
57113;SDS011;42994;51.606;9.988;2022-08-03T13:44:38;1.60;;;1.50;;
57113;SDS011;42994;51.606;9.988;2022-08-03T13:47:05;1.77;;;1.17;;
57113;SDS011;42994;51.606;9.988;2022-08-03T13:49:32;9.43;;;1.40;;
57113;SDS011;42994;51.606;9.988;2022-08-03T13:51:58;4.63;;;1.40;;
57113;SDS011;42994;51.606;9.988;2022-08-03T13:54:26;2.63;;;1.10;;
57113;SDS011;42994;51.606;9.988;2022-08-03T13:56:54;2.17;;;1.30;;
57113;SDS011;42994;51.606;9.988;2022-08-03T13:59:21;1.88;;;1.35;;
57113;SDS011;42994;51.606;9.988;2022-08-03T14:01:48;5.15;;;1.42;;
57113;SDS011;42994;51.606;9.988;2022-08-03T14:04:16;1.48;;;1.10;;
57113;SDS011;42994;51.606;9.988;2022-08-03T14:06:43;0.95;;;0.95;;
57113;SDS011;42994;51.606;9.988;2022-08-03T14:09:10;2.55;;;1.10;;
57113;SDS011;42994;51.606;9.988;2022-08-03T14:11:37;1.33;;;1.02;;
57113;SDS011;42994;51.606;9.988;2022-08-03T14:14:06;2.00;;;1.15;;
57113;SDS011;42994;51.606;9.988;2022-08-03T14:16:32;2.53;;;1.17;;
57113;SDS011;42994;51.606;9.988;2022-08-03T14:18:59;1.58;;;1.10;;
57113;SDS011;42994;51.606;9.988;2022-08-03T14:21:26;1.95;;;1.30;;
57113;SDS011;42994;51.606;9.988;2022-08-03T14:23:52;5.93;;;1.27;;
57113;SDS011;42994;51.606;9.988;2022-08-03T14:26:20;2.05;;;1.35;;
57113;SDS011;42994;51.606;9.988;2022-08-03T14:28:47;1.15;;;1.08;;
57113;SDS011;42994;51.606;9.988;2022-08-03T14:31:15;2.45;;;1.23;;
57113;SDS011;42994;51.606;9.988;2022-08-03T14:33:42;1.10;;;1.10;;
57113;SDS011;42994;51.606;9.988;2022-08-03T14:36:09;1.40;;;1.30;;
57113;SDS011;42994;51.606;9.988;2022-08-03T14:38:35;1.45;;;1.35;;
57113;SDS011;42994;51.606;9.988;2022-08-03T14:41:02;2.13;;;1.35;;
57113;SDS011;42994;51.606;9.988;2022-08-03T14:43:29;2.85;;;1.45;;
57113;SDS011;42994;51.606;9.988;2022-08-03T14:45:55;5.15;;;1.73;;
57113;SDS011;42994;51.606;9.988;2022-08-03T14:48:23;2.47;;;1.40;;
57113;SDS011;42994;51.606;9.988;2022-08-03T14:50:51;2.28;;;1.13;;
57113;SDS011;42994;51.606;9.988;2022-08-03T14:53:19;1.55;;;1.40;;
57113;SDS011;42994;51.606;9.988;2022-08-03T14:55:46;3.55;;;1.70;;
57113;SDS011;42994;51.606;9.988;2022-08-03T14:58:13;2.03;;;1.30;;
57113;SDS011;42994;51.606;9.988;2022-08-03T15:00:40;4.30;;;1.63;;
57113;SDS011;42994;51.606;9.988;2022-08-03T15:03:08;2.65;;;1.30;;
57113;SDS011;42994;51.606;9.988;2022-08-03T15:05:36;1.50;;;1.40;;
57113;SDS011;42994;51.606;9.988;2022-08-03T15:08:02;1.40;;;1.30;;
57113;SDS011;42994;51.606;9.988;2022-08-03T15:10:29;1.10;;;1.10;;
57113;SDS011;42994;51.606;9.988;2022-08-03T15:12:56;4.57;;;1.67;;
57113;SDS011;42994;51.606;9.988;2022-08-03T15:15:23;3.60;;;1.17;;
57113;SDS011;42994;51.606;9.988;2022-08-03T15:17:49;1.92;;;1.20;;
57113;SDS011;42994;51.606;9.988;2022-08-03T15:20:16;2.00;;;1.30;;
57113;SDS011;42994;51.606;9.988;2022-08-03T15:22:44;2.15;;;1.27;;
57113;SDS011;42994;51.606;9.988;2022-08-03T15:25:11;1.80;;;1.30;;
57113;SDS011;42994;51.606;9.988;2022-08-03T15:27:38;8.30;;;1.77;;
57113;SDS011;42994;51.606;9.988;2022-08-03T15:30:05;2.92;;;1.27;;
57113;SDS011;42994;51.606;9.988;2022-08-03T15:32:32;3.15;;;1.27;;
57113;SDS011;42994;51.606;9.988;2022-08-03T15:34:59;1.98;;;1.00;;
57113;SDS011;42994;51.606;9.988;2022-08-03T15:37:26;3.90;;;1.42;;
57113;SDS011;42994;51.606;9.988;2022-08-03T15:39:54;2.20;;;1.05;;
57113;SDS011;42994;51.606;9.988;2022-08-03T15:42:21;2.42;;;1.33;;
57113;SDS011;42994;51.606;9.988;2022-08-03T15:44:48;3.83;;;1.23;;
57113;SDS011;42994;51.606;9.988;2022-08-03T15:47:14;2.88;;;1.25;;
57113;SDS011;42994;51.606;9.988;2022-08-03T15:49:41;2.20;;;1.30;;
57113;SDS011;42994;51.606;9.988;2022-08-03T15:52:08;2.10;;;1.30;;
57113;SDS011;42994;51.606;9.988;2022-08-03T15:54:35;1.30;;;1.20;;
57113;SDS011;42994;51.606;9.988;2022-08-03T15:57:03;0.98;;;0.98;;
57113;SDS011;42994;51.606;9.988;2022-08-03T15:59:29;1.20;;;1.10;;
57113;SDS011;42994;51.606;9.988;2022-08-03T16:01:56;3.78;;;1.50;;
57113;SDS011;42994;51.606;9.988;2022-08-03T16:04:23;1.20;;;1.10;;
57113;SDS011;42994;51.606;9.988;2022-08-03T16:06:49;1.00;;;1.00;;
57113;SDS011;42994;51.606;9.988;2022-08-03T16:09:16;1.55;;;1.42;;
57113;SDS011;42994;51.606;9.988;2022-08-03T16:11:43;1.58;;;1.40;;
57113;SDS011;42994;51.606;9.988;2022-08-03T16:14:11;2.03;;;1.40;;
57113;SDS011;42994;51.606;9.988;2022-08-03T16:16:37;3.85;;;1.08;;
57113;SDS011;42994;51.606;9.988;2022-08-03T16:19:05;2.22;;;1.60;;
57113;SDS011;42994;51.606;9.988;2022-08-03T16:21:31;1.25;;;1.08;;
57113;SDS011;42994;51.606;9.988;2022-08-03T16:23:58;1.38;;;1.27;;
57113;SDS011;42994;51.606;9.988;2022-08-03T16:26:26;3.90;;;1.17;;
57113;SDS011;42994;51.606;9.988;2022-08-03T16:28:52;3.45;;;1.48;;
57113;SDS011;42994;51.606;9.988;2022-08-03T16:31:20;3.08;;;1.00;;
57113;SDS011;42994;51.606;9.988;2022-08-03T16:33:51;1.67;;;1.30;;
57113;SDS011;42994;51.606;9.988;2022-08-03T16:36:18;3.63;;;1.10;;
57113;SDS011;42994;51.606;9.988;2022-08-03T16:38:45;2.20;;;1.23;;
57113;SDS011;42994;51.606;9.988;2022-08-03T16:41:11;4.07;;;1.30;;
57113;SDS011;42994;51.606;9.988;2022-08-03T16:43:38;2.03;;;1.27;;
57113;SDS011;42994;51.606;9.988;2022-08-03T16:46:05;2.25;;;1.33;;
57113;SDS011;42994;51.606;9.988;2022-08-03T16:48:33;4.70;;;1.30;;
57113;SDS011;42994;51.606;9.988;2022-08-03T16:51:04;2.58;;;1.10;;
57113;SDS011;42994;51.606;9.988;2022-08-03T16:53:31;3.55;;;1.65;;